Time;durP1;ratioP1;P1;durP2;ratioP2;P2;SDS_P1;SDS_P2;PMS_P1;PMS_P2;Temp;Humidity;BMP_temperature;BMP_pressure;BME280_temperature;BME280_humidity;BME280_pressure;Samples;Min_cycle;Max_cycle;Signal;HPM_P1;HPM_P2
2022/04/26 03:36:32;;;;;;;;;;;;;;;;;;2218387;66;1045;-68
2022/04/26 03:39:09;;;;;;;;;;;;;;;;;;2216510;66;1179;-68
2022/04/26 03:41:42;;;;;;;;;;;;;;;;;;2214586;58;1960;-68
2022/04/26 03:44:15;;;;;;;;;;;;;;;;;;2218079;59;1917;-67
2022/04/26 03:46:48;;;;;;;;;;;;;;;;;;2218194;66;1305;-67
2022/04/26 03:49:21;;;;;;;;;;;;;;;;;;2219147;58;1921;-67
2022/04/26 03:51:54;;;;;;;;;;;;;;;;;;2218452;58;1087;-68
2022/04/26 03:54:30;;;;;;;;;;;;;;;;;;2216429;66;1197;-67
2022/04/26 03:57:03;;;;;;;;;;;;;;;;;;2217690;59;1047;-68
2022/04/26 03:59:36;;;;;;;;;;;;;;;;;;2217689;58;1198;-68
2022/04/26 04:02:10;;;;;;;;;;;;;;;;;;2218361;66;1092;-68
2022/04/26 04:04:43;;;;;;;;;;;;;;;;;;2217100;59;1752;-68
2022/04/26 04:07:16;;;;;;;;;;;;;;;;;;2217993;66;1246;-68
2022/04/26 04:09:52;;;;;;;;;;;;;;;;;;2215802;66;1987;-67
2022/04/26 04:12:25;;;;;;;;;;;;;;;;;;2218225;59;1325;-68
2022/04/26 04:14:58;;;;;;;;;;;;;;;;;;2216841;59;1218;-68
2022/04/26 04:17:31;;;;;;;;;;;;;;;;;;2217542;59;1362;-68
2022/04/26 04:20:01;;;;;;;;;;;;;;;;;;2217354;59;1185;-67
2022/04/26 04:22:34;;;;;;;;;;;;;;;;;;2217329;59;1344;-68
2022/04/26 04:25:11;;;;;;;;;;;;;;;;;;2217320;59;1713;-66
2022/04/26 04:27:44;;;;;;;;;;;;;;;;;;2216652;66;1274;-67
2022/04/26 04:30:17;;;;;;;;;;;;;;;;;;2216204;59;1912;-66
2022/04/26 04:32:50;;;;;;;;;;;;;;;;;;2218159;59;1261;-66
2022/04/26 04:35:24;;;;;;;;;;;;;;;;;;2216146;59;1255;-67
2022/04/26 04:37:57;;;;;;;;;;;;;;;;;;2217562;59;1221;-67
2022/04/26 04:40:33;;;;;;;;;;;;;;;;;;2218151;66;1108;-67
2022/04/26 04:43:06;;;;;;;;;;;;;;;;;;2215834;59;1178;-67
2022/04/26 04:45:39;;;;;;;;;;;;;;;;;;2216630;59;1579;-67
2022/04/26 04:48:12;;;;;;;;;;;;;;;;;;2218692;66;1193;-69
2022/04/26 04:50:45;;;;;;;;;;;;;;;;;;2218262;59;1991;-69
2022/04/26 04:53:20;;;;;;;;;;;;;;;;;;2218513;58;1342;-68
2022/04/26 04:55:55;;;;;;;;;;;;;;;;;;2218407;66;1175;-69
2022/04/26 04:58:28;;;;;;;;;;;;;;;;;;2217438;66;1187;-69
2022/04/26 05:01:02;;;;;;;;;;;;;;;;;;2216712;59;1130;-69
2022/04/26 05:03:35;;;;;;;;;;;;;;;;;;2218080;66;1216;-69
2022/04/26 05:06:08;;;;;;;;;;;;;;;;;;2217950;58;2229;-69
2022/04/26 05:08:41;;;;;;;;;;;;;;;;;;2216749;58;1192;-69
2022/04/26 05:11:17;;;;;;;;;;;;;;;;;;2219835;59;1940;-68
2022/04/26 05:13:50;;;;;;;;;;;;;;;;;;2217126;59;1256;-69
2022/04/26 05:16:23;;;;;;;;;;;;;;;;;;2217566;66;1230;-69
2022/04/26 05:18:57;;;;;;;;;;;;;;;;;;2218248;66;1282;-69
2022/04/26 05:21:30;;;;;;;;;;;;;;;;;;2217423;59;1276;-69
2022/04/26 05:26:54;;;;;;;;;;;;;;;;;;2218706;66;1048;-69
2022/04/26 05:29:28;;;;;;;;;;;;;;;;;;2217125;59;1352;-69
2022/04/26 05:32:01;;;;;;;;;;;;;;;;;;2217338;66;1999;-69
2022/04/26 05:34:34;;;;;;;;;;;;;;;;;;2216974;66;1213;-69
2022/04/26 05:37:07;;;;;;;;;;;;;;;;;;2216517;66;1216;-69
2022/04/26 05:39:40;;;;;;;;;;;;;;;;;;2219147;59;1247;-70
2022/04/26 05:42:16;;;;;;;;;;;;;;;;;;2217633;66;1222;-69
2022/04/26 05:44:49;;;;;;;;;;;;;;;;;;2217479;59;1755;-69
2022/04/26 05:47:22;;;;;;;;;;;;;;;;;;2217887;58;1347;-69
2022/04/26 05:49:55;;;;;;;;;;;;;;;;;;2217483;66;1932;-69
2022/04/26 05:52:28;;;;;;;;;;;;;;;;;;2218372;66;1251;-69
2022/04/26 05:55:04;;;;;;;;;;;;;;;;;;2217165;59;1607;-69
2022/04/26 05:57:42;;;;;;;;;;;;;;;;;;2217467;59;1403;-69
2022/04/26 06:00:16;;;;;;;;;;;;;;;;;;2214255;66;1228;-69
2022/04/26 06:02:49;;;;;;;;;;;;;;;;;;2217167;58;1220;-69
2022/04/26 06:05:22;;;;;;;;;;;;;;;;;;2216453;59;1894;-69
2022/04/26 06:07:55;;;;;;;;;;;;;;;;;;2216114;66;1235;-70
2022/04/26 06:10:28;;;;;;;;;;;;;;;;;;2217239;66;1925;-69
2022/04/26 06:13:04;;;;;;;;;;;;;;;;;;2216075;58;1680;-69
2022/04/26 06:15:37;;;;;;;;;;;;;;;;;;2215623;67;1229;-69
2022/04/26 06:18:10;;;;;;;;;;;;;;;;;;2215956;66;1302;-69
2022/04/26 06:20:43;;;;;;;;;;;;;;;;;;2216609;59;1817;-69
2022/04/26 06:23:17;;;;;;;;;;;;;;;;;;2212726;67;1288;-70
2022/04/26 06:25:50;;;;;;;;;;;;;;;;;;2215223;59;1877;-69
2022/04/26 06:28:26;;;;;;;;;;;;;;;;;;2216414;59;1268;-69
2022/04/26 06:30:59;;;;;;;;;;;;;;;;;;2216975;59;1929;-69
2022/04/26 06:33:33;;;;;;;;;;;;;;;;;;2211653;67;1240;-70
2022/04/26 06:36:06;;;;;;;;;;;;;;;;;;2215718;66;1080;-69
2022/04/26 06:38:39;;;;;;;;;;;;;;;;;;2215298;66;1105;-69
2022/04/26 06:41:13;;;;;;;;;;;;;;;;;;2215687;66;1329;-67
2022/04/26 06:43:49;;;;;;;;;;;;;;;;;;2217041;59;1901;-67
2022/04/26 06:46:22;;;;;;;;;;;;;;;;;;2217586;58;1171;-68
2022/04/26 06:48:58;;;;;;;;;;;;;;;;;;2218086;59;1396;-67
2022/04/26 06:51:34;;;;;;;;;;;;;;;;;;2216649;66;1936;-67
2022/04/26 06:54:07;;;;;;;;;;;;;;;;;;2214249;66;1226;-70
2022/04/26 06:56:40;;;;;;;;;;;;;;;;;;2218572;66;1179;-69
2022/04/26 06:59:16;;;;;;;;;;;;;;;;;;2218397;59;1296;-69
2022/04/26 07:01:52;;;;;;;;;;;;;;;;;;2217675;59;1453;-68
2022/04/26 07:04:26;;;;;;;;;;;;;;;;;;2214044;53;3721;-72
2022/04/26 07:06:59;;;;;;;;;;;;;;;;;;2213771;59;1751;-72
2022/04/26 07:09:32;;;;;;;;;;;;;;;;;;2215011;59;1218;-73
2022/04/26 07:12:07;;;;;;;;;;;;;;;;;;2215358;59;1925;-73
2022/04/26 07:14:43;;;;;;;;;;;;;;;;;;2213748;59;1424;-72
2022/04/26 07:17:17;;;;;;;;;;;;;;;;;;2215742;59;1274;-72
2022/04/26 07:19:50;;;;;;;;;;;;;;;;;;2215929;59;1960;-71
2022/04/26 07:22:23;;;;;;;;;;;;;;;;;;2214089;58;1581;-72
2022/04/26 07:24:56;;;;;;;;;;;;;;;;;;2214332;58;1754;-72
2022/04/26 07:27:29;;;;;;;;;;;;;;;;;;2216276;66;1286;-73
2022/04/26 07:30:06;;;;;;;;;;;;;;;;;;2216279;59;1323;-73
2022/04/26 07:35:28;;;;;;;;;;;;;;;;;;2216200;59;1193;-72
2022/04/26 07:38:06;;;;;;;;;;;;;;;;;;2215466;59;1284;-72
2022/04/26 07:40:39;;;;;;;;;;;;;;;;;;2214918;67;1250;-73
2022/04/26 07:43:12;;;;;;;;;;;;;;;;;;2215992;67;1187;-72
2022/04/26 07:45:48;;;;;;;;;;;;;;;;;;2212063;59;1913;-72
2022/04/26 07:48:22;;;;;;;;;;;;;;;;;;2214252;59;1745;-72
2022/04/26 07:50:55;;;;;;;;;;;;;;;;;;2215756;59;1949;-71
2022/04/26 07:53:29;;;;;;;;;;;;;;;;;;2216858;66;1008;-72
2022/04/26 07:56:02;;;;;;;;;;;;;;;;;;2213952;59;2829;-72
2022/04/26 07:58:35;;;;;;;;;;;;;;;;;;2215531;59;2409;-72
2022/04/26 08:01:11;;;;;;;;;;;;;;;;;;2215769;59;1250;-71
2022/04/26 08:03:44;;;;;;;;;;;;;;;;;;2217669;59;1103;-71
2022/04/26 08:06:17;;;;;;;;;;;;;;;;;;2216371;59;1536;-72
2022/04/26 08:08:50;;;;;;;;;;;;;;;;;;2214598;66;1244;-72
2022/04/26 08:11:24;;;;;;;;;;;;;;;;;;2215971;59;1929;-72
2022/04/26 08:13:58;;;;;;;;;;;;;;;;;;2215783;59;1815;-72
2022/04/26 08:16:34;;;;;;;;;;;;;;;;;;2216257;59;2043;-72
2022/04/26 08:19:08;;;;;;;;;;;;;;;;;;2214498;58;1966;-71
2022/04/26 08:21:42;;;;;;;;;;;;;;;;;;2214716;59;1546;-72
2022/04/26 08:29:53;;;;;;;;;;;;;;;;;;2215048;59;1378;-72
2022/04/26 08:32:29;;;;;;;;;;;;;;;;;;2215629;67;1976;-72
2022/04/26 08:35:03;;;;;;;;;;;;;;;;;;2215843;67;1250;-71
2022/04/26 08:37:36;;;;;;;;;;;;;;;;;;2215238;58;1711;-72
2022/04/26 08:40:10;;;;;;;;;;;;;;;;;;2214677;59;1653;-71
2022/04/26 08:42:45;;;;;;;;;;;;;;;;;;2215541;67;1063;-72
2022/04/26 08:45:19;;;;;;;;;;;;;;;;;;2213975;58;1874;-71
2022/04/26 08:53:34;;;;;;;;;;;;;;;;;;2213341;66;1368;-71
2022/04/26 08:56:09;;;;;;;;;;;;;;;;;;2215889;59;2698;-70
2022/04/26 08:58:43;;;;;;;;;;;;;;;;;;2215180;59;2413;-71
2022/04/26 09:01:18;;;;;;;;;;;;;;;;;;2214844;66;1254;-70
2022/04/26 09:03:59;;;;;;;;;;;;;;;;;;2215740;59;1612;-70
2022/04/26 09:06:39;;;;;;;;;;;;;;;;;;2215115;59;1640;-70
2022/04/26 09:09:14;;;;;;;;;;;;;;;;;;2216251;66;1174;-71
2022/04/26 09:11:47;;;;;;;;;;;;;;;;;;2215229;59;1974;-70
2022/04/26 09:14:33;;;;;;;;;;;;;;;;;;2215282;67;1149;-71
2022/04/26 09:17:07;;;;;;;;;;;;;;;;;;2215466;66;1092;-71
2022/04/26 09:19:52;;;;;;;;;;;;;;;;;;2216584;59;1212;-71
2022/04/26 09:22:26;;;;;;;;;;;;;;;;;;2215791;67;1217;-71
2022/04/26 09:25:02;;;;;;;;;;;;;;;;;;2215739;58;1735;-71
2022/04/26 09:27:37;;;;;;;;;;;;;;;;;;2216162;58;1554;-71
2022/04/26 09:30:11;;;;;;;;;;;;;;;;;;2213867;59;1405;-71
2022/04/26 09:32:46;;;;;;;;;;;;;;;;;;2215097;59;1980;-71
2022/04/26 09:35:23;;;;;;;;;;;;;;;;;;2214067;59;1589;-72
2022/04/26 09:37:56;;;;;;;;;;;;;;;;;;2214285;67;1209;-72
2022/04/26 09:40:31;;;;;;;;;;;;;;;;;;2215577;59;1569;-72
2022/04/26 09:43:04;;;;;;;;;;;;;;;;;;2215627;58;1703;-71
2022/04/26 09:45:51;;;;;;;;;;;;;;;;;;2215216;59;1735;-72
2022/04/26 09:48:28;;;;;;;;;;;;;;;;;;2216732;59;1665;-71
2022/04/26 09:51:04;;;;;;;;;;;;;;;;;;2217031;59;1235;-71
2022/04/26 09:53:37;;;;;;;;;;;;;;;;;;2215598;58;1982;-71
2022/04/26 09:56:13;;;;;;;;;;;;;;;;;;2213685;59;2547;-73
2022/04/26 09:58:46;;;;;;;;;;;;;;;;;;2213288;59;2328;-73
2022/04/26 10:01:19;;;;;;;;;;;;;;;;;;2213192;59;1600;-73
2022/04/26 10:03:54;;;;;;;;;;;;;;;;;;2214453;59;1257;-72
2022/04/26 10:06:35;;;;;;;;;;;;;;;;;;2214435;59;1419;-74
2022/04/26 10:09:10;;;;;;;;;;;;;;;;;;2215722;59;1095;-72
2022/04/26 10:11:43;;;;;;;;;;;;;;;;;;2216488;59;1927;-73
2022/04/26 10:14:16;;;;;;;;;;;;;;;;;;2215260;66;1258;-73
2022/04/26 10:16:50;;;;;;;;;;;;;;;;;;2213959;58;1676;-74
2022/04/26 10:19:37;;;;;;;;;;;;;;;;;;2215804;59;1099;-73
2022/04/26 10:22:16;;;;;;;;;;;;;;;;;;2215326;59;1344;-73
2022/04/26 10:25:08;;;;;;;;;;;;;;;;;;2214518;59;1768;-74
2022/04/26 10:27:41;;;;;;;;;;;;;;;;;;2216850;66;1102;-74
2022/04/26 10:30:14;;;;;;;;;;;;;;;;;;2215119;59;1417;-73
2022/04/26 10:32:47;;;;;;;;;;;;;;;;;;2211410;66;1991;-74
2022/04/26 10:35:31;;;;;;;;;;;;;;;;;;2215507;58;1583;-74
2022/04/26 10:38:16;;;;;;;;;;;;;;;;;;2216929;66;1306;-73
2022/04/26 10:41:19;;;;;;;;;;;;;;;;;;2216201;58;1640;-73
2022/04/26 10:44:07;;;;;;;;;;;;;;;;;;2200317;67;1304;-75
2022/04/26 10:46:40;;;;;;;;;;;;;;;;;;2214071;59;1360;-74
2022/04/26 10:49:43;;;;;;;;;;;;;;;;;;2215542;59;1646;-73
2022/04/26 10:52:34;;;;;;;;;;;;;;;;;;2214705;58;1929;-74
2022/04/26 10:55:12;;;;;;;;;;;;;;;;;;2216133;59;1328;-75
2022/04/26 10:57:50;;;;;;;;;;;;;;;;;;2216189;59;2787;-74
2022/04/26 11:00:29;;;;;;;;;;;;;;;;;;2209631;58;2274;-74
2022/04/26 11:03:06;;;;;;;;;;;;;;;;;;2215472;59;1858;-73
2022/04/26 11:05:40;;;;;;;;;;;;;;;;;;2215069;59;1676;-75
2022/04/26 11:08:14;;;;;;;;;;;;;;;;;;2216638;66;1188;-73
2022/04/26 11:13:42;;;;;;;;;;;;;;;;;;2214609;59;2295;-75
2022/04/26 11:16:16;;;;;;;;;;;;;;;;;;2216175;59;1570;-73
2022/04/26 11:18:49;;;;;;;;;;;;;;;;;;2214606;59;1901;-75
2022/04/26 11:21:26;;;;;;;;;;;;;;;;;;2214642;59;1569;-75
2022/04/26 11:29:51;;;;;;;;;;;;;;;;;;2214740;58;2356;-75
2022/04/26 11:32:31;;;;;;;;;;;;;;;;;;2214816;59;2393;-75
2022/04/26 11:35:04;;;;;;;;;;;;;;;;;;2215320;59;1846;-74
2022/04/26 11:37:44;;;;;;;;;;;;;;;;;;2215002;59;1729;-75
2022/04/26 11:40:25;;;;;;;;;;;;;;;;;;2215506;66;1170;-75
2022/04/26 11:43:07;;;;;;;;;;;;;;;;;;2215010;66;1261;-75
2022/04/26 11:45:42;;;;;;;;;;;;;;;;;;2215409;59;1707;-75
2022/04/26 11:48:16;;;;;;;;;;;;;;;;;;2216036;59;2412;-74
2022/04/26 11:50:50;;;;;;;;;;;;;;;;;;2216631;59;1157;-74
2022/04/26 11:53:25;;;;;;;;;;;;;;;;;;2214435;59;1923;-74
2022/04/26 11:56:00;;;;;;;;;;;;;;;;;;2214120;59;2194;-74
2022/04/26 11:58:37;;;;;;;;;;;;;;;;;;2214997;59;2444;-75
2022/04/26 12:01:13;;;;;;;;;;;;;;;;;;2213422;59;2413;-74
2022/04/26 12:03:48;;;;;;;;;;;;;;;;;;2211062;59;1646;-74
2022/04/26 12:06:22;;;;;;;;;;;;;;;;;;2214898;59;1965;-74
2022/04/26 12:08:57;;;;;;;;;;;;;;;;;;2216063;59;1249;-74
2022/04/26 12:11:30;;;;;;;;;;;;;;;;;;2212421;59;1759;-74
2022/04/26 12:14:07;;;;;;;;;;;;;;;;;;2215144;67;2009;-74
2022/04/26 12:16:43;;;;;;;;;;;;;;;;;;2216272;59;1157;-74
2022/04/26 12:19:16;;;;;;;;;;;;;;;;;;2215284;59;1419;-74
2022/04/26 12:21:52;;;;;;;;;;;;;;;;;;2211483;67;1377;-74
2022/04/26 12:24:27;;;;;;;;;;;;;;;;;;2214468;59;1554;-74
2022/04/26 12:27:01;;;;;;;;;;;;;;;;;;2215664;59;1129;-76
2022/04/26 12:29:42;;;;;;;;;;;;;;;;;;2215394;59;1636;-73
2022/04/26 12:32:16;;;;;;;;;;;;;;;;;;2217867;58;1990;-74
2022/04/26 12:34:50;;;;;;;;;;;;;;;;;;2216861;66;1224;-74
2022/04/26 12:37:25;;;;;;;;;;;;;;;;;;2212334;67;1150;-74
2022/04/26 12:40:00;;;;;;;;;;;;;;;;;;2215336;66;1146;-73
2022/04/26 12:42:34;;;;;;;;;;;;;;;;;;2218077;59;1169;-73
2022/04/26 12:45:21;;;;;;;;;;;;;;;;;;2216302;59;1925;-73
2022/04/26 12:50:55;;;;;;;;;;;;;;;;;;2216911;66;1075;-73
2022/04/26 12:53:31;;;;;;;;;;;;;;;;;;2214722;59;1976;-73
2022/04/26 12:56:08;;;;;;;;;;;;;;;;;;2215848;59;1710;-73
2022/04/26 12:58:42;;;;;;;;;;;;;;;;;;2216674;59;1606;-74
2022/04/26 13:01:20;;;;;;;;;;;;;;;;;;2214372;59;2564;-73
2022/04/26 13:03:53;;;;;;;;;;;;;;;;;;2217477;66;1230;-73
2022/04/26 13:06:27;;;;;;;;;;;;;;;;;;2218864;53;2184;-72
2022/04/26 13:09:00;;;;;;;;;;;;;;;;;;2218364;59;1244;-72
2022/04/26 13:11:33;;;;;;;;;;;;;;;;;;2218295;58;1333;-71
2022/04/26 13:14:06;;;;;;;;;;;;;;;;;;2218797;58;1927;-71
2022/04/26 13:16:42;;;;;;;;;;;;;;;;;;2217002;59;1017;-72
2022/04/26 13:19:15;;;;;;;;;;;;;;;;;;2215701;66;1092;-72
2022/04/26 13:21:48;;;;;;;;;;;;;;;;;;2218035;59;1210;-71
2022/04/26 13:24:28;;;;;;;;;;;;;;;;;;2217178;58;1856;-72
2022/04/26 13:27:02;;;;;;;;;;;;;;;;;;2216216;58;1689;-72
2022/04/26 13:29:35;;;;;;;;;;;;;;;;;;2216467;66;1440;-72
2022/04/26 13:32:11;;;;;;;;;;;;;;;;;;2217036;59;1462;-72
2022/04/26 13:34:44;;;;;;;;;;;;;;;;;;2217246;66;1973;-72
2022/04/26 13:37:19;;;;;;;;;;;;;;;;;;2216302;66;1090;-71
2022/04/26 13:39:53;;;;;;;;;;;;;;;;;;2217780;58;1269;-72
2022/04/26 13:42:27;;;;;;;;;;;;;;;;;;2216403;66;1229;-72
2022/04/26 13:45:01;;;;;;;;;;;;;;;;;;2217266;58;1622;-72
2022/04/26 13:47:38;;;;;;;;;;;;;;;;;;2215804;58;1293;-72
2022/04/26 13:50:15;;;;;;;;;;;;;;;;;;2217097;59;1188;-72
2022/04/26 13:52:48;;;;;;;;;;;;;;;;;;2217052;66;1927;-72
2022/04/26 13:55:22;;;;;;;;;;;;;;;;;;2216754;59;1879;-72
2022/04/26 13:57:55;;;;;;;;;;;;;;;;;;2216392;59;1778;-71
2022/04/26 14:00:30;;;;;;;;;;;;;;;;;;2216865;58;2531;-72
2022/04/26 14:03:06;;;;;;;;;;;;;;;;;;2216060;59;2363;-70
2022/04/26 14:05:40;;;;;;;;;;;;;;;;;;2216233;58;1666;-71
2022/04/26 14:08:13;;;;;;;;;;;;;;;;;;2216570;66;1120;-71
2022/04/26 14:10:46;;;;;;;;;;;;;;;;;;2217767;66;1452;-71
2022/04/26 14:13:20;;;;;;;;;;;;;;;;;;2217065;58;1980;-71
2022/04/26 14:21:51;;;;;;;;;;;;;;;;;;2216496;58;1715;-71
2022/04/26 14:24:24;;;;;;;;;;;;;;;;;;2215306;58;2066;-72
2022/04/26 14:26:58;;;;;;;;;;;;;;;;;;2217304;66;1148;-72
2022/04/26 14:29:31;;;;;;;;;;;;;;;;;;2217023;59;1357;-72
2022/04/26 14:32:05;;;;;;;;;;;;;;;;;;2217435;66;1213;-72
2022/04/26 14:34:42;;;;;;;;;;;;;;;;;;2215692;58;1900;-71
2022/04/26 14:37:16;;;;;;;;;;;;;;;;;;2217387;59;1272;-71
2022/04/26 14:39:49;;;;;;;;;;;;;;;;;;2216769;58;1226;-71
2022/04/26 14:42:23;;;;;;;;;;;;;;;;;;2217123;58;1136;-69
2022/04/26 14:44:57;;;;;;;;;;;;;;;;;;2216772;58;1754;-70
2022/04/26 14:47:30;;;;;;;;;;;;;;;;;;2217820;58;1161;-69
2022/04/26 14:50:09;;;;;;;;;;;;;;;;;;2218180;66;1293;-69
2022/04/26 14:52:42;;;;;;;;;;;;;;;;;;2216950;66;1132;-69
2022/04/26 14:55:16;;;;;;;;;;;;;;;;;;2212842;59;1953;-69
2022/04/26 14:57:49;;;;;;;;;;;;;;;;;;2217079;58;1669;-70
2022/04/26 15:00:29;;;;;;;;;;;;;;;;;;2216765;58;1830;-68
2022/04/26 15:03:02;;;;;;;;;;;;;;;;;;2216599;59;2288;-68
2022/04/26 15:05:38;;;;;;;;;;;;;;;;;;2215324;58;2510;-68
2022/04/26 15:11:01;;;;;;;;;;;;;;;;;;2218626;58;1696;-68
2022/04/26 15:16:46;;;;;;;;;;;;;;;;;;2217336;66;1236;-68
2022/04/26 15:19:19;;;;;;;;;;;;;;;;;;2218455;59;1274;-68
2022/04/26 15:21:55;;;;;;;;;;;;;;;;;;2217286;66;1310;-68
2022/04/26 15:24:28;;;;;;;;;;;;;;;;;;2218971;58;1774;-68
2022/04/26 15:27:02;;;;;;;;;;;;;;;;;;2216380;58;1404;-68
2022/04/26 15:29:35;;;;;;;;;;;;;;;;;;2217184;59;1424;-68
2022/04/26 15:32:09;;;;;;;;;;;;;;;;;;2218253;61;1339;-69
2022/04/26 15:34:45;;;;;;;;;;;;;;;;;;2217308;58;1927;-69
2022/04/26 15:37:24;;;;;;;;;;;;;;;;;;2217184;66;1111;-69
2022/04/26 15:39:58;;;;;;;;;;;;;;;;;;2215561;58;1634;-69
2022/04/26 15:42:33;;;;;;;;;;;;;;;;;;2216717;66;1215;-69
2022/04/26 15:45:07;;;;;;;;;;;;;;;;;;2214957;58;1775;-69
2022/04/26 15:47:40;;;;;;;;;;;;;;;;;;2216442;58;1596;-69
2022/04/26 15:50:13;;;;;;;;;;;;;;;;;;2217190;58;1141;-70
2022/04/26 15:52:51;;;;;;;;;;;;;;;;;;2216606;66;1174;-70
2022/04/26 15:55:25;;;;;;;;;;;;;;;;;;2215661;59;2577;-69
2022/04/26 15:57:58;;;;;;;;;;;;;;;;;;2215881;59;2312;-70
2022/04/26 16:00:31;;;;;;;;;;;;;;;;;;2215268;58;1866;-69
2022/04/26 16:03:05;;;;;;;;;;;;;;;;;;2216936;66;1179;-70
2022/04/26 16:05:40;;;;;;;;;;;;;;;;;;2217654;58;2071;-70
2022/04/26 16:08:17;;;;;;;;;;;;;;;;;;2217051;59;1187;-70
2022/04/26 16:22:08;;;;;;;;;;;;;;;;;;2217152;66;1139;-70
2022/04/26 16:24:44;;;;;;;;;;;;;;;;;;2216255;58;1719;-70
2022/04/26 16:27:17;;;;;;;;;;;;;;;;;;2216999;66;1040;-71
2022/04/26 16:29:51;;;;;;;;;;;;;;;;;;2217273;58;1282;-71
2022/04/26 16:32:24;;;;;;;;;;;;;;;;;;2215984;66;1107;-70
2022/04/26 16:35:02;;;;;;;;;;;;;;;;;;2216022;66;1935;-70
2022/04/26 16:37:36;;;;;;;;;;;;;;;;;;2216174;58;1743;-70
2022/04/26 16:40:12;;;;;;;;;;;;;;;;;;2216565;58;1565;-71
2022/04/26 16:42:45;;;;;;;;;;;;;;;;;;2215408;59;1175;-71
2022/04/26 16:45:19;;;;;;;;;;;;;;;;;;2215486;58;1858;-71
2022/04/26 16:47:53;;;;;;;;;;;;;;;;;;2215763;58;1136;-70
2022/04/26 16:50:26;;;;;;;;;;;;;;;;;;2215933;66;1112;-71
2022/04/26 16:53:00;;;;;;;;;;;;;;;;;;2216299;58;2196;-70
2022/04/26 16:55:36;;;;;;;;;;;;;;;;;;2216490;58;1941;-71
2022/04/26 16:58:18;;;;;;;;;;;;;;;;;;2215990;59;2983;-71
2022/04/26 17:00:52;;;;;;;;;;;;;;;;;;2216530;66;1226;-71
2022/04/26 17:03:25;;;;;;;;;;;;;;;;;;2217655;66;1065;-71
2022/04/26 17:05:58;;;;;;;;;;;;;;;;;;2216005;58;1750;-71
2022/04/26 17:08:32;;;;;;;;;;;;;;;;;;2217668;59;1164;-71
2022/04/26 17:13:57;;;;;;;;;;;;;;;;;;2217441;58;1948;-71
2022/04/26 17:16:30;;;;;;;;;;;;;;;;;;2216993;59;2015;-71
2022/04/26 17:19:04;;;;;;;;;;;;;;;;;;2217441;58;1920;-71
2022/04/26 17:21:37;;;;;;;;;;;;;;;;;;2216242;59;1264;-71
2022/04/26 17:25:13;;;;;;;;;;;;;;;;;;2217127;58;1822;-71
2022/04/26 17:27:10;;;;;;;;;;;;;;;;;;2218112;59;1425;-71
2022/04/26 17:29:43;;;;;;;;;;;;;;;;;;2217149;58;1720;-71
2022/04/26 17:32:17;;;;;;;;;;;;;;;;;;2217021;58;1879;-72
2022/04/26 17:34:50;;;;;;;;;;;;;;;;;;2216880;66;1927;-71
2022/04/26 17:37:24;;;;;;;;;;;;;;;;;;2217192;58;1743;-71
2022/04/26 17:39:57;;;;;;;;;;;;;;;;;;2217128;58;1840;-71
2022/04/26 17:42:43;;;;;;;;;;;;;;;;;;2216625;58;1663;-71
2022/04/26 17:45:16;;;;;;;;;;;;;;;;;;2216628;58;1726;-71
2022/04/26 17:47:49;;;;;;;;;;;;;;;;;;2217017;58;1211;-72
2022/04/26 17:50:25;;;;;;;;;;;;;;;;;;2216809;60;1247;-72
2022/04/26 17:59:03;;;;;;;;;;;;;;;;;;2215426;58;2475;-72
2022/04/26 18:01:42;;;;;;;;;;;;;;;;;;2214513;66;1378;-72
2022/04/26 18:04:21;;;;;;;;;;;;;;;;;;2217286;58;1672;-71
2022/04/26 18:07:00;;;;;;;;;;;;;;;;;;2215539;58;1786;-72
2022/04/26 18:09:34;;;;;;;;;;;;;;;;;;2215874;58;1911;-72
2022/04/26 18:12:12;;;;;;;;;;;;;;;;;;2215402;58;1658;-71
2022/04/26 18:14:47;;;;;;;;;;;;;;;;;;2216060;58;1925;-70
2022/04/26 18:17:26;;;;;;;;;;;;;;;;;;2216968;58;2354;-69
2022/04/26 18:19:59;;;;;;;;;;;;;;;;;;2215477;58;1564;-69
2022/04/26 18:22:33;;;;;;;;;;;;;;;;;;2216806;59;1149;-69
2022/04/26 18:25:06;;;;;;;;;;;;;;;;;;2216096;58;1747;-69
2022/04/26 18:27:41;;;;;;;;;;;;;;;;;;2217644;59;1320;-70
2022/04/26 18:30:19;;;;;;;;;;;;;;;;;;2217112;58;1425;-69
2022/04/26 18:32:57;;;;;;;;;;;;;;;;;;2216213;58;1292;-70
2022/04/26 18:35:30;;;;;;;;;;;;;;;;;;2212761;59;1920;-70
2022/04/26 18:38:03;;;;;;;;;;;;;;;;;;2216784;66;1105;-69
2022/04/26 18:40:39;;;;;;;;;;;;;;;;;;2215483;66;1102;-70
2022/04/26 18:43:12;;;;;;;;;;;;;;;;;;2212697;59;1428;-70
2022/04/26 18:45:46;;;;;;;;;;;;;;;;;;2216641;59;1750;-69
2022/04/26 18:48:22;;;;;;;;;;;;;;;;;;2215242;58;1660;-70
2022/04/26 18:50:55;;;;;;;;;;;;;;;;;;2215762;58;1407;-69
2022/04/26 18:53:30;;;;;;;;;;;;;;;;;;2216780;58;1586;-70
2022/04/26 18:56:15;;;;;;;;;;;;;;;;;;2217337;58;1933;-70
2022/04/26 18:58:49;;;;;;;;;;;;;;;;;;2215969;59;2525;-70
2022/04/26 19:01:22;;;;;;;;;;;;;;;;;;2215305;66;2417;-70
2022/04/26 19:03:58;;;;;;;;;;;;;;;;;;2214453;66;1085;-70
2022/04/26 19:06:31;;;;;;;;;;;;;;;;;;2215040;53;3504;-73
2022/04/26 19:09:06;;;;;;;;;;;;;;;;;;2213256;59;1254;-73
2022/04/26 19:14:28;;;;;;;;;;;;;;;;;;2213455;59;1921;-73
2022/04/26 19:17:01;;;;;;;;;;;;;;;;;;2212817;67;1240;-74
2022/04/26 19:19:38;;;;;;;;;;;;;;;;;;2213145;59;1674;-73
2022/04/26 19:22:12;;;;;;;;;;;;;;;;;;2213980;59;1487;-73
2022/04/26 19:24:45;;;;;;;;;;;;;;;;;;2213364;59;1715;-73
2022/04/26 19:27:18;;;;;;;;;;;;;;;;;;2213628;59;1931;-73
2022/04/26 19:29:52;;;;;;;;;;;;;;;;;;2214155;59;1363;-73
2022/04/26 19:32:25;;;;;;;;;;;;;;;;;;2213387;67;1431;-73
2022/04/26 19:35:01;;;;;;;;;;;;;;;;;;2212340;59;1941;-74
2022/04/26 19:37:34;;;;;;;;;;;;;;;;;;2212394;59;1665;-73
2022/04/26 19:40:08;;;;;;;;;;;;;;;;;;2212707;67;1310;-73
2022/04/26 19:42:41;;;;;;;;;;;;;;;;;;2213082;67;1320;-73
2022/04/26 19:45:14;;;;;;;;;;;;;;;;;;2213001;59;1690;-73
2022/04/26 19:47:48;;;;;;;;;;;;;;;;;;2212100;59;1680;-73
2022/04/26 19:53:12;;;;;;;;;;;;;;;;;;2212097;67;1933;-73
2022/04/26 19:55:46;;;;;;;;;;;;;;;;;;2212587;59;1929;-73
2022/04/26 19:58:19;;;;;;;;;;;;;;;;;;2213734;59;1140;-73
2022/04/26 20:00:52;;;;;;;;;;;;;;;;;;2212233;59;2849;-73
2022/04/26 20:03:25;;;;;;;;;;;;;;;;;;2211726;59;1108;-73
2022/04/26 20:06:01;;;;;;;;;;;;;;;;;;2212319;58;1747;-73
2022/04/26 20:08:34;;;;;;;;;;;;;;;;;;2212305;59;1702;-73
2022/04/26 20:11:08;;;;;;;;;;;;;;;;;;2214317;59;1904;-73
2022/04/26 20:13:41;;;;;;;;;;;;;;;;;;2213054;59;1695;-73
2022/04/26 20:16:14;;;;;;;;;;;;;;;;;;2214452;59;1940;-73
2022/04/26 20:18:47;;;;;;;;;;;;;;;;;;2212638;59;2128;-73
2022/04/26 20:21:23;;;;;;;;;;;;;;;;;;2213154;67;1267;-73
2022/04/26 20:23:56;;;;;;;;;;;;;;;;;;2213093;59;1777;-73
2022/04/26 20:32:07;;;;;;;;;;;;;;;;;;2213145;67;1129;-73
2022/04/26 20:34:40;;;;;;;;;;;;;;;;;;2213825;59;1982;-73
2022/04/26 20:37:16;;;;;;;;;;;;;;;;;;2212544;59;1593;-74
2022/04/26 20:39:50;;;;;;;;;;;;;;;;;;2211885;59;1175;-73
2022/04/26 20:42:24;;;;;;;;;;;;;;;;;;2212887;66;1338;-73
2022/04/26 20:44:58;;;;;;;;;;;;;;;;;;2211655;59;1764;-73
2022/04/26 20:47:32;;;;;;;;;;;;;;;;;;2213819;59;1685;-73
2022/04/26 20:50:05;;;;;;;;;;;;;;;;;;2213880;59;1717;-73
2022/04/26 20:52:41;;;;;;;;;;;;;;;;;;2213645;67;1233;-73
2022/04/26 20:55:14;;;;;;;;;;;;;;;;;;2213488;59;1986;-73
2022/04/26 20:57:48;;;;;;;;;;;;;;;;;;2214093;59;1412;-73
2022/04/26 21:00:22;;;;;;;;;;;;;;;;;;2213904;67;1367;-73
2022/04/26 21:02:55;;;;;;;;;;;;;;;;;;2213565;67;1157;-73
2022/04/26 21:05:29;;;;;;;;;;;;;;;;;;2214269;58;1856;-73
2022/04/26 21:08:05;;;;;;;;;;;;;;;;;;2213909;67;1060;-73
2022/04/26 21:10:39;;;;;;;;;;;;;;;;;;2213508;59;1768;-73
2022/04/26 21:13:27;;;;;;;;;;;;;;;;;;2213464;59;1363;-73
2022/04/26 21:16:00;;;;;;;;;;;;;;;;;;2213607;60;1988;-73
2022/04/26 21:18:34;;;;;;;;;;;;;;;;;;2213874;59;1179;-73
2022/04/26 21:21:08;;;;;;;;;;;;;;;;;;2212566;67;1083;-73
2022/04/26 21:23:44;;;;;;;;;;;;;;;;;;2214292;59;1128;-73
2022/04/26 21:26:17;;;;;;;;;;;;;;;;;;2214275;59;1719;-73
2022/04/26 21:28:50;;;;;;;;;;;;;;;;;;2212875;59;1310;-73
2022/04/26 21:31:24;;;;;;;;;;;;;;;;;;2213247;67;1208;-73
2022/04/26 21:33:57;;;;;;;;;;;;;;;;;;2212770;59;1278;-76
2022/04/26 21:36:30;;;;;;;;;;;;;;;;;;2214649;67;1928;-73
2022/04/26 21:39:06;;;;;;;;;;;;;;;;;;2213045;67;1274;-73
2022/04/26 21:41:39;;;;;;;;;;;;;;;;;;2214069;67;1176;-73
2022/04/26 21:44:13;;;;;;;;;;;;;;;;;;2213642;67;1212;-73
2022/04/26 21:46:46;;;;;;;;;;;;;;;;;;2213736;59;1920;-73
2022/04/26 21:51:31;;;;;;;;;;;;;;;;;;2214236;59;1321;-73
2022/04/26 21:52:10;;;;;;;;;;;;;;;;;;2214667;67;1580;-73
2022/04/26 21:54:46;;;;;;;;;;;;;;;;;;2214148;67;1265;-73
2022/04/26 21:57:19;;;;;;;;;;;;;;;;;;2212961;59;1920;-73
2022/04/26 21:59:52;;;;;;;;;;;;;;;;;;2213644;67;1279;-73
2022/04/26 22:02:25;;;;;;;;;;;;;;;;;;2213662;59;2445;-73
2022/04/26 22:04:59;;;;;;;;;;;;;;;;;;2213741;58;1944;-73
2022/04/26 22:07:33;;;;;;;;;;;;;;;;;;2214350;67;1182;-73
2022/04/26 22:10:09;;;;;;;;;;;;;;;;;;2212891;59;1418;-73
2022/04/26 22:12:43;;;;;;;;;;;;;;;;;;2213983;59;1363;-73
2022/04/26 22:15:17;;;;;;;;;;;;;;;;;;2214063;59;2179;-73
2022/04/26 22:17:50;;;;;;;;;;;;;;;;;;2213728;59;1163;-73
2022/04/26 22:20:25;;;;;;;;;;;;;;;;;;2212973;66;1308;-73
2022/04/26 22:22:59;;;;;;;;;;;;;;;;;;2214407;67;1310;-73
2022/04/26 22:25:35;;;;;;;;;;;;;;;;;;2213895;59;1607;-73
2022/04/26 22:28:09;;;;;;;;;;;;;;;;;;2214075;67;1239;-74
2022/04/26 22:30:42;;;;;;;;;;;;;;;;;;2215145;59;1311;-73
2022/04/26 22:33:16;;;;;;;;;;;;;;;;;;2214185;67;1205;-73
2022/04/26 22:35:49;;;;;;;;;;;;;;;;;;2214766;67;1929;-73
2022/04/26 22:38:22;;;;;;;;;;;;;;;;;;2212046;67;1231;-73
2022/04/26 22:40:58;;;;;;;;;;;;;;;;;;2213106;59;1583;-73
2022/04/26 22:43:31;;;;;;;;;;;;;;;;;;2212690;59;1103;-74